Time;durP1;ratioP1;P1;durP2;ratioP2;P2;SDS_P1;SDS_P2;PMS_P1;PMS_P2;Temp;Humidity;BMP_temperature;BMP_pressure;BME280_temperature;BME280_humidity;BME280_pressure;Samples;Min_cycle;Max_cycle;Signal;HPM_P1;HPM_P2
2023/01/18 05:48:10;;;;;;;3.50;2.40;;;1.20;99.90;;;;;;7620099;19;20460;-70
2023/01/18 05:50:44;;;;;;;6.65;3.35;;;1.20;99.90;;;;;;7612536;19;20925;-68
2023/01/18 05:53:19;;;;;;;10.57;3.90;;;1.20;99.90;;;;;;7604255;19;20015;-70
2023/01/18 05:56:00;;;;;;;7.22;3.33;;;1.30;99.90;;;;;;7557517;19;20060;-68
2023/01/18 05:58:33;;;;;;;6.68;2.85;;;1.40;99.90;;;;;;7605965;19;20020;-69
2023/01/18 06:01:07;;;;;;;4.78;2.95;;;1.50;99.90;;;;;;7579823;19;20846;-70
2023/01/18 06:03:40;;;;;;;6.07;2.72;;;1.60;99.90;;;;;;7588978;19;20022;-71
2023/01/18 06:06:15;;;;;;;9.85;3.60;;;1.60;99.90;;;;;;7623232;19;20050;-70
2023/01/18 06:08:47;;;;;;;6.53;2.72;;;1.60;99.90;;;;;;7594035;19;20019;-70
2023/01/18 06:11:19;;;;;;;7.15;3.53;;;1.70;99.90;;;;;;7590444;19;20022;-71
2023/01/18 06:13:52;;;;;;;16.27;5.05;;;1.80;99.90;;;;;;7608588;19;20028;-68
2023/01/18 06:16:25;;;;;;;12.95;3.95;;;1.80;99.90;;;;;;7602002;19;20029;-70
2023/01/18 06:18:57;;;;;;;8.73;3.65;;;1.80;99.90;;;;;;7591635;19;20022;-70
2023/01/18 06:21:29;;;;;;;7.50;3.83;;;1.80;99.90;;;;;;7577691;19;20018;-70
2023/01/18 06:24:01;;;;;;;14.18;4.63;;;1.90;99.90;;;;;;7585682;19;20052;-69
2023/01/18 06:26:34;;;;;;;19.55;7.65;;;1.80;99.90;;;;;;7602595;19;20103;-70
2023/01/18 06:29:06;;;;;;;17.38;6.20;;;1.90;99.90;;;;;;7611460;19;20021;-71
2023/01/18 06:31:38;;;;;;;18.48;7.25;;;1.30;99.90;;;;;;7563931;19;20134;-69
2023/01/18 06:34:10;;;;;;;13.45;4.88;;;2.00;99.90;;;;;;7592862;19;20576;-70
2023/01/18 06:38:58;;;;;;;16.70;6.70;;;2.00;99.90;;;;;;7604106;19;20994;-70
2023/01/18 06:41:30;;;;;;;25.08;8.15;;;2.00;99.90;;;;;;7639521;19;20081;-69
2023/01/18 06:44:03;;;;;;;21.63;7.20;;;2.00;99.90;;;;;;7635881;19;20018;-70
2023/01/18 06:46:35;;;;;;;18.23;6.28;;;1.90;99.90;;;;;;7633136;19;20517;-70
2023/01/18 06:49:07;;;;;;;28.13;9.60;;;1.90;99.90;;;;;;7631491;19;20038;-70
2023/01/18 06:51:39;;;;;;;36.05;11.60;;;1.80;99.90;;;;;;7631479;19;20082;-70
2023/01/18 06:54:14;;;;;;;41.47;14.05;;;1.90;99.90;;;;;;7644615;19;20921;-70
2023/01/18 06:56:47;;;;;;;33.13;11.85;;;2.00;99.90;;;;;;7632051;19;20056;-70
2023/01/18 06:59:19;;;;;;;14.20;6.07;;;2.00;99.90;;;;;;7642394;19;20043;-69
2023/01/18 07:01:53;;;;;;;4.57;2.35;;;2.40;99.90;;;;;;7634511;19;20032;-70
2023/01/18 07:04:25;;;;;;;8.52;3.85;;;2.10;99.90;;;;;;7633672;19;20109;-70
2023/01/18 07:07:03;;;;;;;3.42;2.55;;;2.10;99.90;;;;;;7640558;19;20102;-70
2023/01/18 07:09:36;;;;;;;5.65;3.45;;;2.10;99.90;;;;;;7645983;19;20926;-70
2023/01/18 07:12:14;;;;;;;11.70;4.03;;;2.20;99.70;;;;;;7636895;19;20025;-69
2023/01/18 07:14:46;;;;;;;5.97;4.03;;;2.10;99.40;;;;;;7622567;19;20030;-70
2023/01/18 07:17:18;;;;;;;6.57;3.97;;;2.10;99.90;;;;;;7629591;19;20062;-69
2023/01/18 07:19:51;;;;;;;7.25;3.58;;;2.00;99.90;;;;;;7629882;19;20022;-70
2023/01/18 15:53:54;;;;;;;15.90;8.38;;;1.10;99.00;;;;;;7619577;19;20812;-70
2023/01/18 15:56:29;;;;;;;15.57;8.13;;;1.10;99.50;;;;;;7628787;19;20056;-68
2023/01/18 15:59:08;;;;;;;15.07;8.05;;;1.10;99.20;;;;;;7623258;19;20026;-69
2023/01/18 16:01:43;;;;;;;14.27;8.50;;;1.10;98.80;;;;;;7619264;19;20011;-71
2023/01/18 16:04:21;;;;;;;14.27;8.40;;;1.10;99.10;;;;;;7608314;19;20018;-70
2023/01/18 16:06:54;;;;;;;13.02;8.00;;;1.30;98.00;;;;;;7589354;19;20018;-70
2023/01/18 16:09:27;;;;;;;9.97;6.90;;;1.30;98.20;;;;;;7623864;19;20025;-69
2023/01/18 16:11:59;;;;;;;8.60;6.13;;;1.30;97.60;;;;;;7626560;19;20018;-70
2023/01/18 16:14:34;;;;;;;12.40;7.05;;;1.20;96.50;;;;;;7618225;19;20525;-70
2023/01/18 16:17:18;;;;;;;14.80;8.00;;;1.30;96.60;;;;;;7626763;19;20098;-70
2023/01/18 16:19:58;;;;;;;9.48;6.07;;;1.30;96.20;;;;;;7607752;19;20029;-70
2023/01/18 16:22:35;;;;;;;13.85;7.78;;;1.30;96.50;;;;;;7623037;19;20475;-71
2023/01/18 16:25:08;;;;;;;13.15;7.43;;;1.30;96.00;;;;;;7630815;19;20451;-70
2023/01/18 16:27:53;;;;;;;17.58;10.93;;;1.30;95.80;;;;;;7610876;19;20018;-70
2023/01/18 16:30:38;;;;;;;14.02;7.55;;;1.30;95.20;;;;;;7625498;19;20384;-71
2023/01/18 16:33:16;;;;;;;12.60;7.95;;;1.40;95.60;;;;;;7637060;19;20511;-72
2023/01/18 16:35:49;;;;;;;13.15;7.60;;;1.40;95.10;;;;;;7605356;19;20100;-71
2023/01/18 16:38:21;;;;;;;13.00;7.82;;;1.40;94.90;;;;;;7616046;19;20394;-71
2023/01/18 16:40:54;;;;;;;13.27;7.80;;;1.30;95.30;;;;;;7627047;19;21290;-71
2023/01/18 16:43:28;;;;;;;11.57;7.88;;;1.30;94.90;;;;;;7621965;19;20010;-69
2023/01/18 16:46:02;;;;;;;12.43;7.32;;;1.30;94.90;;;;;;7616619;19;20081;-70
2023/01/18 16:48:35;;;;;;;14.38;7.82;;;1.30;94.80;;;;;;7598846;19;21328;-69
2023/01/18 16:51:14;;;;;;;15.68;7.45;;;1.20;95.00;;;;;;7603396;19;20429;-71
2023/01/18 16:53:48;;;;;;;10.25;6.82;;;1.30;94.80;;;;;;7611802;19;20022;-70
2023/01/18 16:56:20;;;;;;;14.77;9.18;;;1.20;94.70;;;;;;7590825;19;20029;-69
2023/01/18 16:58:52;;;;;;;11.65;7.40;;;1.20;95.10;;;;;;7583820;19;20030;-72
2023/01/18 17:01:25;;;;;;;11.77;7.15;;;1.20;94.40;;;;;;7594631;19;20011;-70
2023/01/18 17:03:58;;;;;;;12.57;7.83;;;1.10;94.50;;;;;;7605711;19;20390;-70
2023/01/18 17:06:32;;;;;;;9.82;7.18;;;1.10;94.80;;;;;;7589811;19;20030;-70
2023/01/18 17:09:32;;;;;;;10.88;7.60;;;1.10;94.80;;;;;;7587723;19;20014;-71
2023/01/18 17:12:14;;;;;;;13.32;7.30;;;1.20;95.00;;;;;;7577561;19;20942;-70
2023/01/18 17:14:47;;;;;;;11.30;7.33;;;1.20;94.50;;;;;;7573120;19;21004;-69
2023/01/18 17:17:20;;;;;;;13.83;7.97;;;1.10;94.50;;;;;;7585405;19;20022;-69
2023/01/18 17:19:52;;;;;;;16.50;9.27;;;1.20;94.40;;;;;;7576864;19;20010;-70
2023/01/18 17:22:24;;;;;;;17.77;9.87;;;1.20;94.60;;;;;;7583011;19;20014;-70
2023/01/18 17:24:57;;;;;;;17.33;10.07;;;1.20;94.70;;;;;;7586081;19;20290;-69
2023/01/18 17:27:29;;;;;;;13.20;8.50;;;1.20;94.70;;;;;;7588832;19;22174;-70
2023/01/18 17:30:02;;;;;;;11.18;7.40;;;1.20;94.80;;;;;;7577813;19;20054;-70
2023/01/18 17:32:34;;;;;;;12.67;8.43;;;1.20;94.60;;;;;;7570387;19;20030;-68
2023/01/18 17:35:07;;;;;;;12.02;7.40;;;1.20;95.10;;;;;;7571504;19;20010;-68
2023/01/18 17:37:40;;;;;;;14.20;8.38;;;1.30;94.70;;;;;;7583324;19;20014;-69
2023/01/18 17:40:14;;;;;;;;;;;1.20;94.60;;;;;;7561688;19;20019;-70
2023/01/18 17:42:55;;;;;;;14.73;8.32;;;1.20;95.20;;;;;;7574219;19;19915;-70
2023/01/18 17:45:28;;;;;;;14.00;7.70;;;1.20;94.90;;;;;;7592606;19;20026;-70
2023/01/18 17:48:00;;;;;;;13.07;8.23;;;1.30;95.00;;;;;;7573360;19;20014;-71
2023/01/18 17:50:32;;;;;;;12.25;8.07;;;1.20;94.90;;;;;;7594565;19;20030;-70
2023/01/18 17:53:05;;;;;;;14.32;8.52;;;1.20;94.60;;;;;;7587234;19;20065;-70
2023/01/18 17:55:39;;;;;;;16.35;9.68;;;1.30;95.20;;;;;;7591757;19;20018;-69
2023/01/18 17:58:11;;;;;;;12.90;7.90;;;1.20;95.10;;;;;;7594573;19;20019;-71
2023/01/18 18:00:44;;;;;;;12.52;7.68;;;1.20;94.50;;;;;;7589774;19;20018;-70
2023/01/18 18:03:16;;;;;;;15.50;7.85;;;1.20;93.50;;;;;;7581341;19;20806;-71
2023/01/18 18:05:48;;;;;;;9.77;6.97;;;1.30;93.30;;;;;;7590932;19;20029;-71
2023/01/18 18:08:21;;;;;;;14.50;7.65;;;1.20;93.10;;;;;;7589900;19;20014;-71
2023/01/18 18:10:54;;;;;;;10.57;6.03;;;1.30;93.80;;;;;;7593730;19;20030;-70
2023/01/18 18:13:27;;;;;;;11.98;6.63;;;1.30;92.40;;;;;;7587294;19;20010;-71
2023/01/18 18:15:59;;;;;;;14.73;6.95;;;1.30;92.30;;;;;;7585574;19;20022;-70
2023/01/18 18:18:31;;;;;;;13.77;7.00;;;1.20;92.30;;;;;;7579961;19;20026;-69
2023/01/18 18:21:06;;;;;;;10.93;6.82;;;1.30;92.40;;;;;;7571328;19;20011;-70
2023/01/18 18:23:38;;;;;;;10.15;6.15;;;1.30;93.50;;;;;;7584709;19;20014;-71
2023/01/18 18:26:10;;;;;;;10.73;6.15;;;1.40;95.00;;;;;;7588463;19;20029;-71
2023/01/18 18:28:42;;;;;;;10.50;6.07;;;1.40;93.20;;;;;;7584690;19;20038;-69
2023/01/18 18:31:15;;;;;;;12.05;5.93;;;1.40;93.70;;;;;;7557493;19;20025;-67
2023/01/18 18:33:47;;;;;;;14.13;7.47;;;1.40;92.50;;;;;;7564827;19;20031;-70
2023/01/18 18:36:20;;;;;;;10.70;7.53;;;1.30;92.10;;;;;;7559811;19;20002;-71
2023/01/18 18:38:53;;;;;;;10.50;6.68;;;1.20;92.50;;;;;;7574560;19;21460;-70
2023/01/18 18:41:26;;;;;;;11.32;7.80;;;1.10;92.60;;;;;;7568077;19;20093;-69
2023/01/18 18:43:58;;;;;;;13.17;7.33;;;1.10;92.60;;;;;;7571328;19;20022;-71
2023/01/18 18:46:31;;;;;;;10.63;6.65;;;1.10;92.90;;;;;;7538259;19;21109;-70
2023/01/18 18:49:03;;;;;;;12.17;7.63;;;1.10;92.90;;;;;;7569227;19;21707;-71
2023/01/18 18:51:35;;;;;;;15.15;9.50;;;1.20;93.00;;;;;;7573872;19;20038;-71
2023/01/18 18:54:11;;;;;;;21.60;10.63;;;1.20;93.00;;;;;;7583858;19;20022;-69
2023/01/18 18:56:44;;;;;;;14.57;7.68;;;1.20;93.10;;;;;;7590028;19;20025;-69
2023/01/18 18:59:16;;;;;;;15.95;7.88;;;1.10;93.10;;;;;;7570052;19;20074;-70
2023/01/18 19:01:50;;;;;;;14.63;8.57;;;1.20;93.40;;;;;;7556386;19;20021;-69
2023/01/18 19:04:23;;;;;;;18.38;8.73;;;1.20;93.30;;;;;;7561091;19;20705;-71
2023/01/18 19:06:56;;;;;;;13.38;8.93;;;1.20;93.30;;;;;;7570135;19;20010;-71
2023/01/18 19:09:28;;;;;;;14.30;8.55;;;1.20;93.40;;;;;;7566166;19;20023;-69
2023/01/18 19:12:00;;;;;;;13.30;8.32;;;1.10;93.40;;;;;;7584659;19;20010;-70
2023/01/18 19:14:34;;;;;;;14.60;8.18;;;1.20;93.90;;;;;;7592150;19;21114;-68
2023/01/18 19:17:07;;;;;;;13.20;8.20;;;1.10;93.90;;;;;;7543410;19;20029;-68
2023/01/18 19:19:44;;;;;;;12.75;7.68;;;1.00;94.20;;;;;;7580232;19;21440;-70
2023/01/18 19:22:19;;;;;;;14.63;8.65;;;1.10;94.00;;;;;;7587442;19;20640;-71
2023/01/18 19:24:53;;;;;;;17.30;8.98;;;1.10;93.90;;;;;;7583993;19;20368;-71
2023/01/18 19:27:28;;;;;;;16.80;8.80;;;1.10;94.30;;;;;;7546594;19;20018;-68
2023/01/18 19:30:09;;;;;;;15.40;9.85;;;1.10;94.40;;;;;;7598391;19;20640;-71
2023/01/18 19:32:41;;;;;;;16.20;10.45;;;1.10;94.70;;;;;;7572920;19;20102;-69
2023/01/18 19:35:14;;;;;;;20.77;11.15;;;1.10;95.00;;;;;;7562880;19;20014;-70
2023/01/18 19:37:47;;;;;;;20.13;11.67;;;1.10;95.40;;;;;;7576277;19;20022;-71
2023/01/18 19:40:20;;;;;;;18.25;11.05;;;1.10;95.90;;;;;;7587863;19;20014;-70
2023/01/18 19:42:53;;;;;;;18.00;11.50;;;1.10;96.20;;;;;;7555278;19;20010;-70
2023/01/18 19:45:27;;;;;;;20.17;12.45;;;1.10;96.20;;;;;;7585233;19;20459;-69
2023/01/18 19:48:00;;;;;;;22.55;12.85;;;1.20;96.60;;;;;;7593065;19;20019;-69
2023/01/18 19:50:34;;;;;;;19.20;11.37;;;1.00;96.60;;;;;;7573752;19;20029;-70
2023/01/18 19:53:08;;;;;;;20.38;10.68;;;1.10;97.00;;;;;;7560363;19;20043;-70
2023/01/18 19:55:43;;;;;;;16.98;10.52;;;1.00;96.50;;;;;;7540734;19;20033;-69
2023/01/18 19:58:18;;;;;;;17.67;10.40;;;1.00;97.30;;;;;;7551255;19;20054;-69
2023/01/18 20:00:53;;;;;;;18.77;10.63;;;0.90;97.00;;;;;;7570262;19;20017;-69
2023/01/18 20:03:28;;;;;;;16.80;11.07;;;0.90;97.10;;;;;;7038649;19;10000308;-68
2023/01/18 20:06:15;;;;;;;21.40;11.70;;;0.90;97.20;;;;;;7571923;19;20018;-69
2023/01/18 20:08:50;;;;;;;19.70;10.65;;;0.90;97.40;;;;;;7573260;19;20029;-72
2023/01/18 20:11:23;;;;;;;20.92;11.07;;;1.00;97.50;;;;;;7559500;19;20022;-67
2023/01/18 20:13:56;;;;;;;;;;;1.00;97.10;;;;;;7576265;19;21011;-69
2023/01/18 20:16:29;;;;;;;18.42;9.20;;;0.90;97.60;;;;;;7567359;19;20278;-69
2023/01/18 20:19:02;;;;;;;30.45;16.88;;;0.80;97.30;;;;;;7562829;19;21229;-70
2023/01/18 20:21:35;;;;;;;;;;;0.80;97.90;;;;;;7583403;19;20022;-70
2023/01/18 20:24:08;;;;;;;46.90;22.33;;;0.80;98.30;;;;;;7556711;19;19996;-70
2023/01/18 20:26:40;;;;;;;33.47;18.70;;;0.90;98.40;;;;;;7580766;19;20541;-70
2023/01/18 20:29:13;;;;;;;25.52;14.23;;;0.90;98.80;;;;;;7584573;19;20018;-70
2023/01/18 20:31:45;;;;;;;23.58;13.48;;;0.90;99.50;;;;;;7549386;19;20026;-69
2023/01/18 20:34:21;;;;;;;23.42;12.85;;;0.90;99.90;;;;;;7582164;19;20010;-69
2023/01/18 20:36:53;;;;;;;33.28;17.45;;;0.90;99.90;;;;;;7529144;19;20042;-68
2023/01/18 20:39:27;;;;;;;21.73;13.13;;;0.90;99.90;;;;;;7562681;19;20014;-71
2023/01/18 20:42:00;;;;;;;23.33;12.80;;;0.90;99.90;;;;;;7580002;19;20014;-70
2023/01/18 20:44:33;;;;;;;23.50;13.32;;;0.90;99.90;;;;;;7585765;19;20021;-71
2023/01/18 20:47:05;;;;;;;19.48;12.38;;;0.90;99.90;;;;;;7572763;19;20516;-72
2023/01/18 20:49:40;;;;;;;24.33;13.43;;;0.90;99.90;;;;;;7578675;19;20059;-68
2023/01/18 20:52:13;;;;;;;28.30;15.48;;;0.80;99.90;;;;;;7582267;19;21584;-70
2023/01/18 20:54:45;;;;;;;41.78;18.63;;;0.80;99.90;;;;;;7580603;19;20515;-71
2023/01/18 20:57:18;;;;;;;28.35;16.08;;;0.80;99.90;;;;;;7582940;19;20090;-69
2023/01/18 20:59:50;;;;;;;24.55;14.73;;;0.90;99.90;;;;;;7588951;19;20387;-70
2023/01/18 21:02:24;;;;;;;25.20;14.30;;;0.80;99.90;;;;;;7573095;19;20010;-69
2023/01/18 21:04:56;;;;;;;34.20;16.40;;;0.80;99.90;;;;;;7588253;19;20068;-71
